createdAt,value
2022-09-01T00:00:01.383Z,16.90
2022-09-01T00:02:29.112Z,16.90
2022-09-01T00:04:58.461Z,16.80
2022-09-01T00:07:27.282Z,16.90
2022-09-01T00:09:53.921Z,16.80
2022-09-01T00:12:22.647Z,16.80
2022-09-01T00:14:49.524Z,16.80
2022-09-01T00:17:16.256Z,16.80
2022-09-01T00:19:42.882Z,16.80
2022-09-01T00:22:09.509Z,16.80
2022-09-01T00:24:36.985Z,16.80
2022-09-01T00:27:04.388Z,16.80
2022-09-01T00:29:31.128Z,16.70
2022-09-01T00:31:57.783Z,16.70
2022-09-01T00:34:24.472Z,16.70
2022-09-01T00:36:51.420Z,16.70
2022-09-01T00:39:18.109Z,16.60
2022-09-01T00:41:45.251Z,16.60
2022-09-01T00:44:16.632Z,16.50
2022-09-01T00:46:51.023Z,16.50
2022-09-01T00:49:42.965Z,16.50
2022-09-01T00:52:15.613Z,16.40
2022-09-01T00:54:46.459Z,16.40
2022-09-01T00:57:15.370Z,16.40
2022-09-01T00:59:59.050Z,16.40
2022-09-01T01:02:26.272Z,16.40
2022-09-01T01:04:55.697Z,16.40
2022-09-01T01:07:22.895Z,16.40
2022-09-01T01:09:51.158Z,16.40
2022-09-01T01:12:18.393Z,16.40
2022-09-01T01:14:50.058Z,16.40
2022-09-01T01:17:21.723Z,16.40
2022-09-01T01:20:15.008Z,16.30
2022-09-01T01:23:07.669Z,16.30
2022-09-01T01:25:45.133Z,16.20
2022-09-01T01:28:22.307Z,16.20
2022-09-01T01:30:59.162Z,16.20
2022-09-01T01:33:42.947Z,16.10
2022-09-01T01:36:32.171Z,16.00
2022-09-01T01:39:02.840Z,16.00
2022-09-01T01:41:31.885Z,15.90
2022-09-01T01:44:02.992Z,15.80
2022-09-01T01:46:32.153Z,15.70
2022-09-01T01:49:02.074Z,15.60
2022-09-01T01:51:31.801Z,15.70
2022-09-01T01:54:01.705Z,15.60
2022-09-01T01:56:28.442Z,15.70
2022-09-01T01:58:57.604Z,15.70
2022-09-01T02:01:28.682Z,15.70
2022-09-01T02:03:57.662Z,15.70
2022-09-01T02:06:28.054Z,15.70
2022-09-01T02:08:58.210Z,15.80
2022-09-01T02:11:26.212Z,15.80
2022-09-01T02:13:57.710Z,15.70
2022-09-01T02:16:30.126Z,15.70
2022-09-01T02:18:56.933Z,15.80
2022-09-01T02:21:25.404Z,15.80
2022-09-01T02:24:01.305Z,15.80
2022-09-01T02:26:34.026Z,15.80
2022-09-01T02:29:04.648Z,15.70
2022-09-01T02:31:39.182Z,15.80
2022-09-01T02:34:10.571Z,15.80
2022-09-01T02:36:47.533Z,15.80
2022-09-01T02:39:20.731Z,15.70
2022-09-01T02:41:47.550Z,15.70
2022-09-01T02:44:14.694Z,15.70
2022-09-01T02:46:46.474Z,15.70
2022-09-01T02:49:19.695Z,15.70
2022-09-01T02:51:52.119Z,15.70
2022-09-01T02:54:19.102Z,15.70
2022-09-01T02:56:48.027Z,15.70
2022-09-01T02:59:21.628Z,15.70
2022-09-01T03:01:52.530Z,15.60
2022-09-01T03:04:20.201Z,15.50
2022-09-01T03:06:47.164Z,15.50
2022-09-01T03:09:16.945Z,15.40
2022-09-01T03:11:50.928Z,15.30
2022-09-01T03:14:18.059Z,15.30
2022-09-01T03:16:45.332Z,15.30
2022-09-01T03:19:13.258Z,15.30
2022-09-01T03:21:42.697Z,15.30
2022-09-01T03:24:12.430Z,15.20
2022-09-01T03:26:39.270Z,15.20
2022-09-01T03:29:06.414Z,15.20
2022-09-01T03:31:33.159Z,15.20
2022-09-01T03:34:00.969Z,15.20
2022-09-01T03:36:29.012Z,15.20
2022-09-01T03:38:55.842Z,15.10
2022-09-01T03:41:31.091Z,15.10
2022-09-01T03:43:59.422Z,15.10
2022-09-01T03:46:27.300Z,15.10
2022-09-01T03:48:58.420Z,15.10
2022-09-01T03:51:27.111Z,15.20
2022-09-01T03:53:55.128Z,15.10
2022-09-01T03:56:26.241Z,15.10
2022-09-01T03:58:56.140Z,15.10
2022-09-01T04:01:25.113Z,15.10
2022-09-01T04:03:52.111Z,15.00
2022-09-01T04:06:20.328Z,14.90
2022-09-01T04:08:47.302Z,14.90
2022-09-01T04:11:18.770Z,14.80
2022-09-01T04:13:47.165Z,14.80
2022-09-01T04:16:45.705Z,14.80
2022-09-01T04:19:21.052Z,14.70
2022-09-01T04:21:53.630Z,14.70
2022-09-01T04:24:24.124Z,14.70
2022-09-01T04:26:52.402Z,14.70
2022-09-01T04:29:27.392Z,14.70
2022-09-01T04:32:02.520Z,14.70
2022-09-01T04:34:37.142Z,14.80
2022-09-01T04:37:12.963Z,14.80
2022-09-01T04:39:51.456Z,14.80
2022-09-01T04:42:23.919Z,14.80
2022-09-01T04:44:51.684Z,14.80
2022-09-01T04:47:19.760Z,14.80
2022-09-01T04:49:48.213Z,14.70
2022-09-01T04:52:15.312Z,14.70
2022-09-01T04:54:45.111Z,14.70
2022-09-01T04:57:12.021Z,14.60
2022-09-01T04:59:38.703Z,14.60
2022-09-01T05:02:09.299Z,14.60
2022-09-01T05:04:36.779Z,14.40
2022-09-01T05:07:05.253Z,14.40
2022-09-01T05:09:36.919Z,14.40
2022-09-01T05:12:12.903Z,14.30
2022-09-01T05:14:48.260Z,14.40
2022-09-01T05:17:17.448Z,14.40
2022-09-01T05:19:47.737Z,14.50
2022-09-01T05:22:15.703Z,14.50
2022-09-01T05:24:42.449Z,14.50
2022-09-01T05:27:10.469Z,14.50
2022-09-01T05:29:38.306Z,14.50
2022-09-01T05:32:09.901Z,14.60
2022-09-01T05:34:38.738Z,14.60
2022-09-01T05:37:08.419Z,14.60
2022-09-01T05:39:37.976Z,14.60
2022-09-01T05:42:08.037Z,14.60
2022-09-01T05:44:44.855Z,14.60
2022-09-01T05:47:20.026Z,14.70
2022-09-01T05:49:49.687Z,14.70
2022-09-01T05:52:16.388Z,14.70
2022-09-01T05:54:43.046Z,14.70
2022-09-01T05:57:32.567Z,14.70
2022-09-01T05:59:56.328Z,14.70
2022-09-01T06:02:23.968Z,14.70
2022-09-01T06:04:52.943Z,14.70
2022-09-01T06:07:25.361Z,14.70
2022-09-01T06:09:53.589Z,14.70
2022-09-01T06:12:23.070Z,14.70
2022-09-01T06:14:51.672Z,14.80
2022-09-01T06:17:23.222Z,14.80
2022-09-01T06:19:50.821Z,14.80
2022-09-01T06:22:17.474Z,14.90
2022-09-01T06:24:46.274Z,14.90
2022-09-01T06:27:20.305Z,15.00
2022-09-01T06:29:51.598Z,15.10
2022-09-01T06:32:19.238Z,15.20
2022-09-01T06:34:51.163Z,15.20
2022-09-01T06:37:22.369Z,15.30
2022-09-01T06:39:49.950Z,15.30
2022-09-01T06:42:17.399Z,15.40
2022-09-01T06:44:45.858Z,15.40
2022-09-01T06:47:12.568Z,15.50
2022-09-01T06:49:40.832Z,15.50
2022-09-01T06:52:08.110Z,15.50
2022-09-01T06:54:39.088Z,15.60
2022-09-01T06:59:54.030Z,15.80
2022-09-01T07:02:26.318Z,15.90
2022-09-01T07:04:54.069Z,15.90
2022-09-01T07:10:24.663Z,16.10
2022-09-01T07:13:06.638Z,16.10
2022-09-01T07:18:27.299Z,16.30
2022-09-01T07:26:30.738Z,16.60
2022-09-01T07:29:01.433Z,16.70
2022-09-01T07:39:54.365Z,17.00
2022-09-01T07:42:58.961Z,16.50
2022-09-01T07:45:26.160Z,17.20
2022-09-01T07:47:53.797Z,17.20
2022-09-01T07:53:12.492Z,17.30
2022-09-01T07:55:44.216Z,17.30
2022-09-01T07:58:13.226Z,17.30
2022-09-01T08:00:43.269Z,17.20
2022-09-01T08:03:10.111Z,17.10
2022-09-01T08:05:36.912Z,17.20
2022-09-01T08:08:04.458Z,17.20
2022-09-01T08:10:49.017Z,17.30
2022-09-01T08:13:17.026Z,17.30
2022-09-01T08:18:48.191Z,17.20
2022-09-01T08:21:16.753Z,17.20
2022-09-01T08:23:44.373Z,17.30
2022-09-01T08:26:15.499Z,17.30
2022-09-01T08:28:45.945Z,17.30
2022-09-01T08:31:15.910Z,17.30
2022-09-01T08:33:44.603Z,17.40
2022-09-01T08:36:14.046Z,17.40
2022-09-01T08:38:41.470Z,17.50
2022-09-01T08:41:28.831Z,17.60
2022-09-01T08:44:46.535Z,17.60
2022-09-01T08:47:17.202Z,17.70
2022-09-01T08:49:46.968Z,17.70
2022-09-01T08:52:31.938Z,17.60
2022-09-01T08:55:35.211Z,17.70
2022-09-01T08:58:04.929Z,17.80
2022-09-01T09:00:41.941Z,17.90
2022-09-01T09:03:43.332Z,18.10
2022-09-01T09:06:19.596Z,18.20
2022-09-01T09:08:49.152Z,18.30
2022-09-01T09:11:45.683Z,18.30
2022-09-01T09:14:31.268Z,18.30
2022-09-01T09:16:58.165Z,18.40
2022-09-01T09:19:29.198Z,18.50
2022-09-01T09:21:58.664Z,18.60
2022-09-01T09:24:56.391Z,18.70
2022-09-01T09:27:28.316Z,18.60
2022-09-01T09:30:26.943Z,18.70
2022-09-01T09:35:50.813Z,18.70
2022-09-01T09:38:28.522Z,18.70
2022-09-01T09:41:27.036Z,18.70
2022-09-01T09:44:14.804Z,18.70
2022-09-01T09:46:43.744Z,18.60
2022-09-01T09:49:16.603Z,18.70
2022-09-01T09:51:48.422Z,18.80
2022-09-01T09:54:24.047Z,18.70
2022-09-01T09:57:05.806Z,18.80
2022-09-01T09:59:57.596Z,18.80
2022-09-01T10:02:33.502Z,18.90
2022-09-01T10:05:21.854Z,18.90
2022-09-01T10:07:49.021Z,18.90
2022-09-01T10:10:36.326Z,19.00
2022-09-01T10:13:03.191Z,19.00
2022-09-01T10:15:33.782Z,19.00
2022-09-01T10:21:07.831Z,18.90
2022-09-01T10:23:37.719Z,19.00
2022-09-01T10:26:23.866Z,19.00
2022-09-01T10:29:11.949Z,19.10
2022-09-01T10:31:41.287Z,19.20
2022-09-01T10:34:13.581Z,19.20
2022-09-01T10:36:41.998Z,19.20
2022-09-01T10:39:14.460Z,19.30
2022-09-01T10:41:59.791Z,19.30
2022-09-01T10:44:34.455Z,19.40
2022-09-01T10:47:24.320Z,19.50
2022-09-01T10:49:50.968Z,19.60
2022-09-01T10:52:43.453Z,19.70
2022-09-01T10:55:32.611Z,19.80
2022-09-01T10:59:31.179Z,19.80
2022-09-01T11:01:34.990Z,19.80
2022-09-01T11:03:57.357Z,19.80
2022-09-01T11:06:41.589Z,19.90
2022-09-01T11:09:40.534Z,19.90
2022-09-01T11:12:40.041Z,19.90
2022-09-01T11:15:14.728Z,20.00
2022-09-01T11:17:50.701Z,20.00
2022-09-01T11:20:27.930Z,20.00
2022-09-01T11:23:23.655Z,20.00
2022-09-01T11:26:32.447Z,20.00
2022-09-01T11:28:59.303Z,20.10
2022-09-01T11:31:31.683Z,20.00
2022-09-01T11:34:19.597Z,20.10
2022-09-01T11:36:51.421Z,20.10
2022-09-01T11:39:19.424Z,20.30
2022-09-01T11:42:04.220Z,20.30
2022-09-01T11:44:37.593Z,20.40
2022-09-01T11:47:14.384Z,20.40
2022-09-01T11:50:00.934Z,20.60
2022-09-01T11:52:30.567Z,20.60
2022-09-01T11:54:58.725Z,20.70
2022-09-01T11:57:32.259Z,20.70
2022-09-01T12:00:02.074Z,20.80
2022-09-01T12:02:33.457Z,20.90
2022-09-01T12:05:23.476Z,20.80
2022-09-01T12:07:50.464Z,20.70
2022-09-01T12:10:38.391Z,20.70
2022-09-01T12:13:31.594Z,20.80
2022-09-01T12:16:17.325Z,20.80
2022-09-01T12:18:48.071Z,20.90
2022-09-01T12:21:36.433Z,21.00
2022-09-01T12:24:18.850Z,21.10
2022-09-01T12:26:51.400Z,21.10
2022-09-01T12:29:18.382Z,21.00
2022-09-01T12:31:48.189Z,21.00
2022-09-01T12:34:33.214Z,20.90
2022-09-01T12:37:22.876Z,21.00
2022-09-01T12:39:55.050Z,21.00
2022-09-01T12:42:21.696Z,21.10
2022-09-01T12:44:58.436Z,21.00
2022-09-01T12:47:34.244Z,21.10
2022-09-01T12:50:06.743Z,21.10
2022-09-01T12:52:35.788Z,21.10
2022-09-01T12:55:02.972Z,21.10
2022-09-01T12:57:37.990Z,21.00
2022-09-01T13:00:23.764Z,21.00
2022-09-01T13:03:10.364Z,20.90
2022-09-01T13:05:42.811Z,20.90
2022-09-01T13:08:11.378Z,20.90
2022-09-01T13:10:43.742Z,21.00
2022-09-01T13:13:12.029Z,21.00
2022-09-01T13:15:48.018Z,21.00
2022-09-01T13:18:15.812Z,21.20
2022-09-01T13:20:42.572Z,21.10
2022-09-01T13:23:09.696Z,21.10
2022-09-01T13:25:36.310Z,21.20
2022-09-01T13:28:03.831Z,21.10
2022-09-01T13:30:31.183Z,21.20
2022-09-01T13:35:44.861Z,21.30
2022-09-01T13:38:11.786Z,21.30
2022-09-01T13:40:38.436Z,21.40
2022-09-01T13:43:06.134Z,21.30
2022-09-01T13:45:33.725Z,21.20
2022-09-01T13:48:16.879Z,21.30
2022-09-01T13:53:37.637Z,21.30
2022-09-01T13:56:04.949Z,21.40
2022-09-01T13:58:31.608Z,21.40
2022-09-01T14:00:59.809Z,21.30
2022-09-01T14:03:26.743Z,21.30
2022-09-01T14:05:53.899Z,21.30
2022-09-01T14:08:22.657Z,21.40
2022-09-01T14:10:52.015Z,21.50
2022-09-01T14:13:21.481Z,21.50
2022-09-01T14:15:49.280Z,21.50
2022-09-01T14:18:17.139Z,21.50
2022-09-01T14:20:47.043Z,21.50
2022-09-01T14:23:15.486Z,21.50
2022-09-01T14:25:45.566Z,21.60
2022-09-01T14:28:13.276Z,21.60
2022-09-01T14:30:42.992Z,21.50
2022-09-01T14:33:10.489Z,21.50
2022-09-01T14:35:40.137Z,21.30
2022-09-01T14:38:08.502Z,21.30
2022-09-01T14:40:37.796Z,21.20
2022-09-01T14:43:06.696Z,21.30
2022-09-01T14:45:33.620Z,21.40
2022-09-01T14:48:01.239Z,21.40
2022-09-01T14:50:32.304Z,21.50
2022-09-01T14:53:01.069Z,21.50
2022-09-01T14:55:30.083Z,21.60
2022-09-01T14:57:58.214Z,21.60
2022-09-01T15:00:25.887Z,21.50
2022-09-01T15:02:54.645Z,21.60
2022-09-01T15:05:22.138Z,21.60
2022-09-01T15:07:49.323Z,21.60
2022-09-01T15:10:25.315Z,21.70
2022-09-01T15:12:57.405Z,21.70
2022-09-01T15:15:25.464Z,21.50
2022-09-01T15:17:52.910Z,21.40
2022-09-01T15:20:38.474Z,21.30
2022-09-01T15:23:06.164Z,21.30
2022-09-01T15:25:32.976Z,21.30
2022-09-01T15:27:59.728Z,21.20
2022-09-01T15:30:27.869Z,21.10
2022-09-01T15:32:55.186Z,21.00
2022-09-01T15:35:22.885Z,21.00
2022-09-01T15:37:51.485Z,21.00
2022-09-01T15:40:19.631Z,20.90
2022-09-01T15:42:46.600Z,20.90
2022-09-01T15:45:17.059Z,20.90
2022-09-01T15:47:45.877Z,20.90
2022-09-01T15:50:20.989Z,20.90
2022-09-01T15:52:56.664Z,20.90
2022-09-01T15:55:29.026Z,21.00
2022-09-01T15:57:56.320Z,21.00
2022-09-01T16:00:25.654Z,21.10
2022-09-01T16:02:54.388Z,21.20
2022-09-01T16:05:21.176Z,21.30
2022-09-01T16:07:47.905Z,21.30
2022-09-01T16:10:15.012Z,21.30
2022-09-01T16:12:43.833Z,21.30
2022-09-01T16:15:16.516Z,21.30
2022-09-01T16:17:52.195Z,21.20
2022-09-01T16:20:38.652Z,21.20
2022-09-01T16:23:17.046Z,21.20
2022-09-01T16:25:44.848Z,21.20
2022-09-01T16:28:23.832Z,21.20
2022-09-01T16:30:55.916Z,21.10
2022-09-01T16:33:22.652Z,21.20
2022-09-01T16:36:07.962Z,21.20
2022-09-01T16:38:50.867Z,21.20
2022-09-01T16:41:28.013Z,21.20
2022-09-01T16:44:23.582Z,21.20
2022-09-01T16:47:01.062Z,21.10
2022-09-01T16:49:45.123Z,21.10
2022-09-01T16:52:22.265Z,21.10
2022-09-01T16:55:06.450Z,21.20
2022-09-01T16:58:00.312Z,21.10
2022-09-01T17:00:40.163Z,21.10
2022-09-01T17:03:20.968Z,21.00
2022-09-01T17:05:54.994Z,20.90
2022-09-01T17:08:24.088Z,20.90
2022-09-01T17:11:00.362Z,20.90
2022-09-01T17:13:51.182Z,20.90
2022-09-01T17:16:37.374Z,20.90
2022-09-01T17:19:25.785Z,20.90
2022-09-01T17:22:07.134Z,20.90
2022-09-01T17:24:42.631Z,20.80
2022-09-01T17:27:27.504Z,20.70
2022-09-01T17:29:56.989Z,20.70
2022-09-01T17:33:02.857Z,20.60
2022-09-01T17:35:37.430Z,20.60
2022-09-01T17:38:32.564Z,20.50
2022-09-01T17:41:19.164Z,20.50
2022-09-01T17:44:04.078Z,20.50
2022-09-01T17:46:54.729Z,20.50
2022-09-01T17:49:31.000Z,20.50
2022-09-01T17:52:13.862Z,20.50
2022-09-01T17:54:46.531Z,20.40
2022-09-01T17:57:19.406Z,20.40
2022-09-01T18:00:01.472Z,20.40
2022-09-01T18:02:47.105Z,20.40
2022-09-01T18:05:24.697Z,20.40
2022-09-01T18:08:09.380Z,20.40
2022-09-01T18:11:16.176Z,20.40
2022-09-01T18:13:53.978Z,20.50
2022-09-01T18:16:25.993Z,20.40
2022-09-01T18:18:53.873Z,20.40
2022-09-01T18:21:34.696Z,20.40
2022-09-01T18:24:16.691Z,20.40
2022-09-01T18:26:52.901Z,20.40
2022-09-01T18:29:19.967Z,20.30
2022-09-01T18:31:58.105Z,20.30
2022-09-01T18:34:33.303Z,20.20
2022-09-01T18:37:27.619Z,20.20
2022-09-01T18:40:10.948Z,20.20
2022-09-01T18:43:12.513Z,20.10
2022-09-01T18:45:48.715Z,20.10
2022-09-01T18:48:21.055Z,20.00
2022-09-01T18:50:56.968Z,20.00
2022-09-01T18:53:43.739Z,20.00
2022-09-01T18:56:21.215Z,19.90
2022-09-01T18:59:21.915Z,19.80
2022-09-01T19:01:59.522Z,19.80
2022-09-01T19:04:39.346Z,19.80
2022-09-01T19:07:29.494Z,19.80
2022-09-01T19:10:10.328Z,19.80
2022-09-01T19:12:54.940Z,19.70
2022-09-01T19:15:49.854Z,19.60
2022-09-01T19:18:25.457Z,19.50
2022-09-01T19:21:00.944Z,19.40
2022-09-01T19:23:42.018Z,19.40
2022-09-01T19:26:15.756Z,19.30
2022-09-01T19:28:49.242Z,19.30
2022-09-01T19:31:24.059Z,19.20
2022-09-01T19:33:58.154Z,19.10
2022-09-01T19:36:36.330Z,19.10
2022-09-01T19:39:10.045Z,19.00
2022-09-01T19:41:45.194Z,18.90
2022-09-01T19:44:20.282Z,18.90
2022-09-01T19:46:51.698Z,18.80
2022-09-01T19:49:48.889Z,18.70
2022-09-01T19:52:49.093Z,18.60
2022-09-01T19:55:29.114Z,18.50
2022-09-01T19:58:04.858Z,18.40
2022-09-01T20:00:52.386Z,18.40
2022-09-01T20:03:25.863Z,18.30
2022-09-01T20:06:25.551Z,18.30
2022-09-01T20:09:06.977Z,18.20
2022-09-01T20:11:44.856Z,18.20
2022-09-01T20:14:20.209Z,18.20
2022-09-01T20:16:53.160Z,18.20
2022-09-01T20:19:44.468Z,18.20
2022-09-01T20:22:46.292Z,18.10
2022-09-01T20:25:19.950Z,18.10
2022-09-01T20:27:59.887Z,18.10
2022-09-01T20:30:31.251Z,18.00
2022-09-01T20:33:28.860Z,17.90
2022-09-01T20:36:03.240Z,17.80
2022-09-01T20:39:01.522Z,17.70
2022-09-01T20:41:39.685Z,17.60
2022-09-01T20:44:18.898Z,17.50
2022-09-01T20:46:47.425Z,17.40
2022-09-01T20:49:15.831Z,17.30
2022-09-01T20:51:53.140Z,17.30
2022-09-01T20:54:35.867Z,17.30
2022-09-01T20:57:17.495Z,17.20
2022-09-01T20:59:49.682Z,17.10
2022-09-01T21:02:43.451Z,17.20
2022-09-01T21:05:18.062Z,17.20
2022-09-01T21:08:14.986Z,17.20
2022-09-01T21:10:51.762Z,17.10
2022-09-01T21:13:32.334Z,17.00
2022-09-01T21:16:05.708Z,17.00
2022-09-01T21:18:51.417Z,17.00
2022-09-01T21:21:35.896Z,17.00
2022-09-01T21:24:03.757Z,17.00
2022-09-01T21:26:31.172Z,17.00
2022-09-01T21:29:04.886Z,16.80
2022-09-01T21:31:31.574Z,16.80
2022-09-01T21:33:58.207Z,16.80
2022-09-01T21:36:24.838Z,16.80
2022-09-01T21:38:51.454Z,16.80
2022-09-01T21:41:18.114Z,16.80
2022-09-01T21:43:45.650Z,16.80
2022-09-01T21:46:14.449Z,16.80
2022-09-01T21:48:41.316Z,16.80
2022-09-01T21:51:07.959Z,16.80
2022-09-01T21:53:34.650Z,16.80
2022-09-01T21:56:01.347Z,16.80
2022-09-01T21:58:27.963Z,16.70
2022-09-01T22:00:55.597Z,16.70
2022-09-01T22:03:22.468Z,16.70
2022-09-01T22:05:51.068Z,16.70
2022-09-01T22:08:18.510Z,16.70
2022-09-01T22:10:49.469Z,16.60
2022-09-01T22:13:17.075Z,16.60
2022-09-01T22:15:47.021Z,16.60
2022-09-01T22:18:14.915Z,16.50
2022-09-01T22:20:42.424Z,16.40
2022-09-01T22:23:09.850Z,16.30
2022-09-01T22:25:41.819Z,16.20
2022-09-01T22:28:09.066Z,16.20
2022-09-01T22:30:35.907Z,16.10
2022-09-01T22:33:03.708Z,16.00
2022-09-01T22:35:30.437Z,16.10
2022-09-01T22:37:57.055Z,16.10
2022-09-01T22:40:23.748Z,16.00
2022-09-01T22:42:51.832Z,16.00
2022-09-01T22:45:18.612Z,15.90
2022-09-01T22:47:45.302Z,15.90
2022-09-01T22:50:12.547Z,15.90
2022-09-01T22:52:39.293Z,15.90
2022-09-01T22:55:08.815Z,15.90
2022-09-01T22:57:36.679Z,15.90
2022-09-01T23:00:08.451Z,15.90
2022-09-01T23:02:35.658Z,15.80
2022-09-01T23:05:02.551Z,15.80
2022-09-01T23:07:36.489Z,15.70
2022-09-01T23:10:08.182Z,15.60
2022-09-01T23:12:34.801Z,15.60
2022-09-01T23:15:01.452Z,15.60
2022-09-01T23:17:28.083Z,15.60
2022-09-01T23:19:54.771Z,15.60
2022-09-01T23:22:21.407Z,15.50
2022-09-01T23:24:48.031Z,15.50
2022-09-01T23:27:14.667Z,15.50
2022-09-01T23:29:41.332Z,15.40
2022-09-01T23:32:08.191Z,15.40
2022-09-01T23:34:34.895Z,15.40
2022-09-01T23:37:01.668Z,15.40
2022-09-01T23:39:28.300Z,15.30
2022-09-01T23:41:54.921Z,15.30
2022-09-01T23:44:23.435Z,15.30
2022-09-01T23:46:50.066Z,15.30
2022-09-01T23:49:18.467Z,15.30
2022-09-01T23:51:47.429Z,15.20
2022-09-01T23:54:15.025Z,15.20
2022-09-01T23:56:41.891Z,15.20
2022-09-01T23:59:08.891Z,15.10
